Time;durP1;ratioP1;P1;durP2;ratioP2;P2;SDS_P1;SDS_P2;PMS_P1;PMS_P2;Temp;Humidity;BMP_temperature;BMP_pressure;BME280_temperature;BME280_humidity;BME280_pressure;Samples;Min_cycle;Max_cycle;Signal;HPM_P1;HPM_P2
2023/08/13 00:00:45;;;;;;;;;;;27.70;66.00;;;;;;5056596;28;43143;-82
2023/08/13 00:03:10;;;;;;;;;;;27.60;66.20;;;;;;5055486;28;43320;-79
2023/08/13 00:05:36;;;;;;;;;;;27.50;66.60;;;;;;5045260;28;42864;-79
2023/08/13 00:08:01;;;;;;;;;;;27.60;66.50;;;;;;5056431;28;43541;-79
2023/08/13 00:10:27;;;;;;;;;;;27.70;66.70;;;;;;5053823;28;42914;-83
2023/08/13 00:12:52;;;;;;;;;;;27.70;67.20;;;;;;5052206;28;42840;-81
2023/08/13 00:15:18;;;;;;;;;;;27.60;67.00;;;;;;5045856;28;42900;-81
2023/08/13 00:17:43;;;;;;;;;;;27.50;66.90;;;;;;5053530;28;43682;-89
2023/08/13 00:20:09;;;;;;;;;;;27.40;66.60;;;;;;5051004;28;43089;-80
2023/08/13 00:22:35;;;;;;;;;;;27.50;66.00;;;;;;5047372;28;44009;-87
2023/08/13 00:25:00;;;;;;;;;;;27.40;66.50;;;;;;5045058;28;42894;-82
2023/08/13 00:27:26;;;;;;;;;;;27.50;66.80;;;;;;5051293;28;42808;-83
2023/08/13 00:29:51;;;;;;;;;;;27.50;66.90;;;;;;5049374;28;42984;-82
2023/08/13 00:32:17;;;;;;;;;;;27.50;66.70;;;;;;5045046;28;42935;-81
2023/08/13 00:34:42;;;;;;;;;;;27.60;67.00;;;;;;5055762;28;43018;-86
2023/08/13 00:37:08;;;;;;;;;;;27.60;66.90;;;;;;5048172;28;43765;-79
2023/08/13 00:39:33;;;;;;;;;;;27.60;67.00;;;;;;5047145;28;42979;-85
2023/08/13 00:41:58;;;;;;;;;;;27.50;66.80;;;;;;5054864;28;42989;-88
2023/08/13 00:44:24;;;;;;;;;;;27.40;66.80;;;;;;5054412;28;42971;-86
2023/08/13 00:46:50;;;;;;;;;;;27.50;66.80;;;;;;5045540;28;42915;-86
2023/08/13 00:49:15;;;;;;;;;;;27.20;67.00;;;;;;5027440;28;43039;-88
2023/08/13 00:51:41;;;;;;;;;;;27.40;66.80;;;;;;5052366;28;43813;-87
2023/08/13 00:54:07;;;;;;;;;;;28.10;67.50;;;;;;5052543;28;43042;-88
2023/08/13 00:56:33;;;;;;;;;;;27.30;66.70;;;;;;5044401;28;43940;-79
2023/08/13 00:59:00;;;;;;;;;;;27.40;66.90;;;;;;5046869;28;59678;-84
2023/08/13 01:01:26;;;;;;;;;;;27.50;66.80;;;;;;5031815;28;43525;-84
2023/08/13 01:03:51;;;;;;;;;;;27.40;66.90;;;;;;5037847;28;42965;-86
2023/08/13 01:06:26;;;;;;;;;;;27.60;66.70;;;;;;5043974;28;42940;-86
2023/08/13 01:09:02;;;;;;;;;;;27.50;64.90;;;;;;5056967;28;43051;-85
2023/08/13 01:11:59;;;;;;;;;;;27.60;64.80;;;;;;5053759;28;43023;-86
2023/08/13 01:14:39;;;;;;;;;;;27.60;64.40;;;;;;5043387;28;42991;-84
2023/08/13 01:17:06;;;;;;;;;;;27.50;64.60;;;;;;5054838;28;42928;-79
2023/08/13 01:19:32;;;;;;;;;;;28.00;67.40;;;;;;5050893;28;42949;-80
2023/08/13 01:21:57;;;;;;;;;;;27.40;67.10;;;;;;5054318;28;43489;-86
2023/08/13 01:24:23;;;;;;;;;;;27.50;67.00;;;;;;5030234;28;42992;-84
2023/08/13 01:27:01;;;;;;;;;;;27.60;66.90;;;;;;5044930;28;43526;-83
2023/08/13 01:29:46;;;;;;;;;;;27.50;64.50;;;;;;5058620;28;43257;-81
2023/08/13 01:32:14;;;;;;;;;;;27.70;64.70;;;;;;5054121;28;43779;-86
2023/08/13 01:34:40;;;;;;;;;;;27.60;66.90;;;;;;5044483;28;42974;-82
2023/08/13 01:37:06;;;;;;;;;;;27.40;66.80;;;;;;5046955;28;43021;-78
2023/08/13 01:39:31;;;;;;;;;;;27.60;67.00;;;;;;5052650;28;43002;-76
2023/08/13 01:41:57;;;;;;;;;;;27.70;67.10;;;;;;5045016;28;42906;-86
2023/08/13 01:44:23;;;;;;;;;;;27.40;67.10;;;;;;5054627;28;43168;-81
2023/08/13 01:46:48;;;;;;;;;;;27.50;67.40;;;;;;5044859;28;42988;-82
2023/08/13 01:49:14;;;;;;;;;;;27.50;67.50;;;;;;5049799;28;43330;-82
2023/08/13 01:51:40;;;;;;;;;;;27.50;67.70;;;;;;5051389;28;43515;-86
2023/08/13 01:54:05;;;;;;;;;;;27.50;67.80;;;;;;5057523;28;42977;-77
2023/08/13 01:56:31;;;;;;;;;;;27.30;67.40;;;;;;5042288;28;43201;-88
2023/08/13 01:58:56;;;;;;;;;;;27.10;67.40;;;;;;5024520;28;42906;-87
2023/08/13 02:01:22;;;;;;;;;;;27.60;67.80;;;;;;5048196;28;42955;-86
2023/08/13 02:03:48;;;;;;;;;;;27.50;67.80;;;;;;5054948;28;43019;-80
2023/08/13 02:06:13;;;;;;;;;;;27.50;68.00;;;;;;5041875;28;43088;-86
2023/08/13 02:08:39;;;;;;;;;;;27.30;67.60;;;;;;5040177;28;43539;-89
2023/08/13 02:11:04;;;;;;;;;;;27.70;67.90;;;;;;5046240;28;44651;-82
2023/08/13 02:13:30;;;;;;;;;;;27.40;67.60;;;;;;5049428;28;43044;-90
2023/08/13 02:16:00;;;;;;;;;;;27.50;67.60;;;;;;5047477;28;43526;-84
2023/08/13 02:18:26;;;;;;;;;;;27.40;67.40;;;;;;5041739;28;42893;-91
2023/08/13 02:20:51;;;;;;;;;;;27.30;67.10;;;;;;5054970;28;43014;-80
2023/08/13 02:23:17;;;;;;;;;;;27.50;67.40;;;;;;5054327;28;43030;-90
2023/08/13 02:25:42;;;;;;;;;;;27.50;67.10;;;;;;5042594;28;43436;-88
2023/08/13 02:28:08;;;;;;;;;;;27.50;67.20;;;;;;5044955;28;42948;-78
2023/08/13 02:30:35;;;;;;;;;;;27.50;67.10;;;;;;5054751;28;43162;-85
2023/08/13 02:33:01;;;;;;;;;;;27.50;67.20;;;;;;5054804;28;42996;-84
2023/08/13 02:35:26;;;;;;;;;;;27.70;67.60;;;;;;5045723;28;43091;-80
2023/08/13 02:37:52;;;;;;;;;;;27.60;67.50;;;;;;5042248;28;42981;-86
2023/08/13 02:40:17;;;;;;;;;;;27.40;66.90;;;;;;5052013;28;43037;-85
2023/08/13 02:42:43;;;;;;;;;;;27.40;66.90;;;;;;5044042;28;43227;-84
2023/08/13 02:45:09;;;;;;;;;;;27.40;67.50;;;;;;5054548;28;44088;-80
2023/08/13 02:47:34;;;;;;;;;;;27.40;66.50;;;;;;5046807;28;43006;-86
2023/08/13 02:50:00;;;;;;;;;;;27.40;67.40;;;;;;5044024;28;42925;-87
2023/08/13 02:52:25;;;;;;;;;;;27.50;67.00;;;;;;5054288;28;43059;-78
2023/08/13 02:54:51;;;;;;;;;;;27.40;67.10;;;;;;5053966;28;42948;-95
2023/08/13 02:57:16;;;;;;;;;;;27.40;66.30;;;;;;5046875;28;43039;-86
2023/08/13 02:59:42;;;;;;;;;;;27.30;66.30;;;;;;5044814;28;43064;-95
2023/08/13 03:02:07;;;;;;;;;;;27.20;66.40;;;;;;5052364;28;43003;-93
2023/08/13 03:04:33;;;;;;;;;;;27.10;66.40;;;;;;5050746;28;43172;-92
2023/08/13 03:06:58;;;;;;;;;;;27.20;66.00;;;;;;5045524;28;43103;-89
2023/08/13 03:09:24;;;;;;;;;;;27.00;66.90;;;;;;5048977;28;43648;-82
2023/08/13 03:11:49;;;;;;;;;;;27.00;67.20;;;;;;5045003;28;42966;-85
2023/08/13 03:14:15;;;;;;;;;;;27.10;67.60;;;;;;5044686;28;42924;-91
2023/08/13 03:16:40;;;;;;;;;;;27.00;67.10;;;;;;5045561;28;43048;-89
2023/08/13 03:19:06;;;;;;;;;;;27.10;67.40;;;;;;5061451;28;43668;-85
2023/08/13 03:21:31;;;;;;;;;;;27.00;67.40;;;;;;5056498;28;43108;-85
2023/08/13 03:23:57;;;;;;;;;;;27.50;67.90;;;;;;5048036;28;42856;-87
2023/08/13 03:26:22;;;;;;;;;;;27.00;67.40;;;;;;5048070;28;43279;-85
2023/08/13 03:28:48;;;;;;;;;;;27.10;67.30;;;;;;5046314;28;42916;-93
2023/08/13 03:31:13;;;;;;;;;;;27.20;67.30;;;;;;5056992;28;43013;-92
2023/08/13 03:33:39;;;;;;;;;;;27.00;67.10;;;;;;5050780;28;42895;-90
2023/08/13 03:36:04;;;;;;;;;;;27.00;66.90;;;;;;5056715;28;43096;-88
2023/08/13 03:38:30;;;;;;;;;;;27.10;66.90;;;;;;5053193;28;42972;-82
2023/08/13 03:40:56;;;;;;;;;;;27.00;67.10;;;;;;5050073;28;43119;-78
2023/08/13 03:43:21;;;;;;;;;;;27.00;66.90;;;;;;5044951;28;42957;-78
2023/08/13 03:45:47;;;;;;;;;;;27.10;67.00;;;;;;5026414;28;42965;-91
2023/08/13 03:48:12;;;;;;;;;;;27.10;67.10;;;;;;5026018;28;42968;-81
2023/08/13 03:50:44;;;;;;;;;;;27.20;66.90;;;;;;5046530;28;43230;-81
2023/08/13 03:53:10;;;;;;;;;;;27.30;64.60;;;;;;5048480;28;43734;-87
2023/08/13 03:55:35;;;;;;;;;;;27.00;66.50;;;;;;5049170;28;42889;-84
2023/08/13 03:58:01;;;;;;;;;;;26.80;66.40;;;;;;5046106;28;42995;-85
2023/08/13 04:00:27;;;;;;;;;;;26.90;66.70;;;;;;5046883;28;43050;-85
2023/08/13 04:02:52;;;;;;;;;;;27.10;66.60;;;;;;5047873;28;43562;-80
2023/08/13 04:05:18;;;;;;;;;;;27.00;66.20;;;;;;5032267;28;42770;-95
2023/08/13 04:07:43;;;;;;;;;;;26.90;66.10;;;;;;5045850;28;42925;-85
2023/08/13 04:10:09;;;;;;;;;;;27.00;66.60;;;;;;5051265;28;43157;-90
2023/08/13 04:12:34;;;;;;;;;;;26.90;66.00;;;;;;5048048;28;43602;-79
2023/08/13 04:15:01;;;;;;;;;;;26.80;66.30;;;;;;5050437;28;43015;-83
2023/08/13 04:17:26;;;;;;;;;;;27.00;66.60;;;;;;5052792;28;42983;-85
2023/08/13 04:19:52;;;;;;;;;;;26.70;66.40;;;;;;5057717;28;43000;-90
2023/08/13 04:22:17;;;;;;;;;;;26.90;66.80;;;;;;5053779;28;43058;-95
2023/08/13 04:24:48;;;;;;;;;;;26.90;66.70;;;;;;5050788;28;42900;-78
2023/08/13 04:27:14;;;;;;;;;;;26.90;66.40;;;;;;5047945;28;43454;-88
2023/08/13 04:29:39;;;;;;;;;;;26.80;66.60;;;;;;5052101;28;43143;-80
2023/08/13 04:32:05;;;;;;;;;;;26.80;66.60;;;;;;5044948;28;43813;-87
2023/08/13 04:37:14;;;;;;;;;;;26.70;65.00;;;;;;5043634;28;42932;-80
2023/08/13 04:39:40;;;;;;;;;;;26.50;66.70;;;;;;5044286;28;42912;-84
2023/08/13 04:42:05;;;;;;;;;;;26.70;67.10;;;;;;5038183;28;42844;-85
2023/08/13 04:44:31;;;;;;;;;;;26.80;67.00;;;;;;5048839;28;42982;-78
2023/08/13 04:46:56;;;;;;;;;;;26.80;67.00;;;;;;5046717;28;43472;-90
2023/08/13 04:49:22;;;;;;;;;;;26.80;67.00;;;;;;5049697;28;42809;-80
2023/08/13 04:51:47;;;;;;;;;;;26.80;67.00;;;;;;5059886;28;43033;-78
2023/08/13 04:54:13;;;;;;;;;;;26.70;67.50;;;;;;5049189;28;42895;-81
2023/08/13 04:56:38;;;;;;;;;;;26.70;67.40;;;;;;5025931;28;42940;-95
2023/08/13 04:59:04;;;;;;;;;;;26.60;67.60;;;;;;5046834;28;42864;-92
2023/08/13 05:01:29;;;;;;;;;;;26.80;67.60;;;;;;5057834;28;43587;-79
2023/08/13 05:03:55;;;;;;;;;;;26.60;67.50;;;;;;5048762;28;42956;-81
2023/08/13 05:06:20;;;;;;;;;;;26.70;67.70;;;;;;5044209;28;43090;-85
2023/08/13 05:08:46;;;;;;;;;;;26.80;67.30;;;;;;5055469;28;42955;-77
2023/08/13 05:11:12;;;;;;;;;;;26.60;67.60;;;;;;5055871;28;43380;-78
2023/08/13 05:13:37;;;;;;;;;;;26.80;67.80;;;;;;5044612;28;42845;-81
2023/08/13 05:16:03;;;;;;;;;;;26.80;67.90;;;;;;5044112;28;42995;-83
2023/08/13 05:18:29;;;;;;;;;;;26.80;67.80;;;;;;5056453;28;42885;-95
2023/08/13 05:20:54;;;;;;;;;;;26.60;68.30;;;;;;5055888;28;43047;-95
2023/08/13 05:23:20;;;;;;;;;;;26.80;68.20;;;;;;5048598;28;42771;-95
2023/08/13 05:25:45;;;;;;;;;;;26.60;67.90;;;;;;5052037;28;42428;-94
2023/08/13 05:28:10;;;;;;;;;;;26.70;68.20;;;;;;5050003;28;42876;-88
2023/08/13 05:30:37;;;;;;;;;;;26.80;68.10;;;;;;5047631;28;43639;-92
2023/08/13 05:33:03;;;;;;;;;;;26.80;68.20;;;;;;5048410;28;42970;-87
2023/08/13 05:35:28;;;;;;;;;;;26.60;68.10;;;;;;5059118;28;43785;-91
2023/08/13 05:37:54;;;;;;;;;;;26.80;68.60;;;;;;5027569;28;42905;-89
2023/08/13 05:40:19;;;;;;;;;;;26.90;68.60;;;;;;5046553;28;42804;-92
2023/08/13 05:42:46;;;;;;;;;;;26.90;68.80;;;;;;5043064;28;42860;-88
2023/08/13 05:45:12;;;;;;;;;;;26.90;68.70;;;;;;5055283;28;43045;-83
2023/08/13 05:47:37;;;;;;;;;;;26.90;69.00;;;;;;5062715;28;42388;-79
2023/08/13 05:50:03;;;;;;;;;;;27.00;68.80;;;;;;5061877;28;43881;-83
2023/08/13 05:52:29;;;;;;;;;;;26.90;68.70;;;;;;5072077;28;42827;-88
2023/08/13 05:54:55;;;;;;;;;;;27.30;69.20;;;;;;5067485;28;42988;-89
2023/08/13 05:57:21;;;;;;;;;;;26.90;68.90;;;;;;5046356;28;42845;-82
2023/08/13 05:59:46;;;;;;;;;;;27.20;69.00;;;;;;5035228;28;44321;-94
2023/08/13 06:02:12;;;;;;;;;;;27.10;69.10;;;;;;5050971;28;42796;-86
2023/08/13 06:04:37;;;;;;;;;;;26.90;68.90;;;;;;5045781;28;42845;-92
2023/08/13 06:07:06;;;;;;;;;;;26.80;68.70;;;;;;5053943;28;42934;-91
2023/08/13 06:09:31;;;;;;;;;;;27.00;68.70;;;;;;5046380;28;42805;-88
2023/08/13 06:11:57;;;;;;;;;;;27.00;68.90;;;;;;5043244;28;42898;-84
2023/08/13 06:14:22;;;;;;;;;;;27.30;69.00;;;;;;5059831;28;42895;-87
2023/08/13 06:16:48;;;;;;;;;;;27.20;69.30;;;;;;5056369;28;42979;-79
2023/08/13 06:19:13;;;;;;;;;;;27.00;69.00;;;;;;5070922;28;42765;-82
2023/08/13 06:21:39;;;;;;;;;;;27.10;68.70;;;;;;5057943;28;43244;-85
2023/08/13 06:24:08;;;;;;;;;;;27.60;68.90;;;;;;5061682;28;43686;-86
2023/08/13 06:26:34;;;;;;;;;;;27.00;67.90;;;;;;5054119;28;42934;-83
2023/08/13 06:28:59;;;;;;;;;;;27.20;68.70;;;;;;5065641;28;42852;-88
2023/08/13 06:31:25;;;;;;;;;;;27.10;68.30;;;;;;5062229;28;42989;-86
2023/08/13 06:33:50;;;;;;;;;;;27.40;68.60;;;;;;5062889;28;43475;-91
2023/08/13 06:36:16;;;;;;;;;;;27.20;68.40;;;;;;5061333;28;42935;-86
2023/08/13 06:38:41;;;;;;;;;;;27.30;68.20;;;;;;5057480;28;43104;-80
2023/08/13 06:41:07;;;;;;;;;;;27.20;68.20;;;;;;5062750;28;42305;-86
2023/08/13 06:43:33;;;;;;;;;;;27.10;68.30;;;;;;5062675;28;42947;-86
2023/08/13 06:45:58;;;;;;;;;;;27.40;67.90;;;;;;5053949;28;42829;-80
2023/08/13 06:48:25;;;;;;;;;;;27.30;68.50;;;;;;5072475;28;42828;-80
2023/08/13 06:50:54;;;;;;;;;;;27.20;68.30;;;;;;5067648;28;42790;-86
2023/08/13 06:53:20;;;;;;;;;;;27.30;65.80;;;;;;5066927;28;42740;-79
2023/08/13 06:55:46;;;;;;;;;;;27.30;68.00;;;;;;5058808;28;42811;-89
2023/08/13 06:58:11;;;;;;;;;;;27.40;68.30;;;;;;5059647;28;43505;-81
2023/08/13 07:00:37;;;;;;;;;;;27.30;68.30;;;;;;5054578;28;42871;-82
2023/08/13 07:03:03;;;;;;;;;;;27.30;68.60;;;;;;5071430;28;43381;-77
2023/08/13 07:05:29;;;;;;;;;;;27.30;68.20;;;;;;5062902;28;42907;-81
2023/08/13 07:07:55;;;;;;;;;;;27.40;68.40;;;;;;5063818;28;43782;-88
2023/08/13 07:10:20;;;;;;;;;;;27.50;68.90;;;;;;5063954;28;42707;-80
2023/08/13 07:12:46;;;;;;;;;;;27.60;68.80;;;;;;5065799;28;42767;-79
2023/08/13 07:15:11;;;;;;;;;;;27.40;69.10;;;;;;5070048;28;42321;-85
2023/08/13 07:17:37;;;;;;;;;;;27.40;68.70;;;;;;5066300;28;43581;-88
2023/08/13 07:20:06;;;;;;;;;;;27.50;69.00;;;;;;5054963;28;42875;-89
2023/08/13 07:22:32;;;;;;;;;;;27.40;68.30;;;;;;5066117;28;43130;-93
2023/08/13 07:24:57;;;;;;;;;;;27.70;68.80;;;;;;5048168;28;42921;-83
2023/08/13 07:27:22;;;;;;;;;;;27.30;68.60;;;;;;5061339;28;42435;-84
2023/08/13 07:29:48;;;;;;;;;;;27.50;68.60;;;;;;5069404;28;43644;-87
2023/08/13 07:32:14;;;;;;;;;;;27.30;68.60;;;;;;5059927;28;43211;-86
2023/08/13 07:34:39;;;;;;;;;;;27.40;68.90;;;;;;5045027;28;43070;-84
2023/08/13 07:37:05;;;;;;;;;;;27.40;67.50;;;;;;5048165;28;43466;-84
2023/08/13 07:39:31;;;;;;;;;;;27.40;68.80;;;;;;5045329;28;42972;-81
2023/08/13 07:41:56;;;;;;;;;;;27.10;68.20;;;;;;5050572;28;43124;-84
2023/08/13 07:44:22;;;;;;;;;;;27.60;68.70;;;;;;5050025;28;42939;-84
2023/08/13 07:46:50;;;;;;;;;;;27.40;68.60;;;;;;5050949;28;43391;-82
2023/08/13 07:49:16;;;;;;;;;;;27.20;68.70;;;;;;5047590;28;43092;-81
2023/08/13 07:51:42;;;;;;;;;;;27.50;69.20;;;;;;5044086;28;43005;-82
2023/08/13 07:54:08;;;;;;;;;;;27.40;68.90;;;;;;5044663;28;43015;-84
2023/08/13 07:56:33;;;;;;;;;;;27.40;66.50;;;;;;5026094;28;44428;-84
2023/08/13 07:58:59;;;;;;;;;;;27.50;66.40;;;;;;5025614;28;43005;-84
2023/08/13 08:01:28;;;;;;;;;;;27.60;67.10;;;;;;5050107;28;42960;-78
2023/08/13 08:03:54;;;;;;;;;;;27.50;66.90;;;;;;5050076;28;42935;-79
2023/08/13 08:06:21;;;;;;;;;;;28.00;67.60;;;;;;5013029;28;44535;-81
2023/08/13 08:08:46;;;;;;;;;;;27.30;67.00;;;;;;5041497;28;43608;-84
2023/08/13 08:11:12;;;;;;;;;;;27.30;67.10;;;;;;5048062;28;43910;-84
2023/08/13 08:13:37;;;;;;;;;;;27.40;67.20;;;;;;5045636;28;43049;-84
2023/08/13 08:16:03;;;;;;;;;;;27.50;67.30;;;;;;5047011;28;42912;-83
2023/08/13 08:18:28;;;;;;;;;;;27.50;67.10;;;;;;5057223;28;42827;-82
2023/08/13 08:20:54;;;;;;;;;;;27.50;67.40;;;;;;5056730;28;43050;-83
2023/08/13 08:23:19;;;;;;;;;;;27.70;68.00;;;;;;5051244;28;42951;-81
2023/08/13 08:25:45;;;;;;;;;;;27.60;67.80;;;;;;5025973;28;43701;-84
2023/08/13 08:28:11;;;;;;;;;;;27.40;67.50;;;;;;5053498;28;43510;-86
2023/08/13 08:30:36;;;;;;;;;;;27.50;67.70;;;;;;5052000;28;43430;-85
2023/08/13 08:33:02;;;;;;;;;;;27.50;67.40;;;;;;5047981;28;42934;-86
2023/08/13 08:35:27;;;;;;;;;;;27.60;67.20;;;;;;5044767;28;43991;-83
2023/08/13 08:37:53;;;;;;;;;;;27.40;67.60;;;;;;5051540;28;43184;-81
2023/08/13 08:40:19;;;;;;;;;;;27.40;67.40;;;;;;5049032;28;43355;-85
2023/08/13 08:42:45;;;;;;;;;;;27.50;67.20;;;;;;5046039;28;42980;-85
2023/08/13 08:45:11;;;;;;;;;;;27.30;67.40;;;;;;5056055;28;42795;-82
2023/08/13 08:47:38;;;;;;;;;;;26.70;65.20;;;;;;5019756;28;43252;-82
2023/08/13 08:50:04;;;;;;;;;;;27.60;65.90;;;;;;5016157;28;45457;-78
2023/08/13 08:52:31;;;;;;;;;;;27.60;65.30;;;;;;5035619;28;43020;-81
2023/08/13 08:54:57;;;;;;;;;;;27.60;66.00;;;;;;5044524;28;43108;-86
2023/08/13 08:57:22;;;;;;;;;;;27.60;66.60;;;;;;5060803;28;43112;-86
2023/08/13 08:59:52;;;;;;;;;;;27.60;66.50;;;;;;5041795;28;43371;-89
2023/08/13 09:02:17;;;;;;;;;;;27.40;63.40;;;;;;5027233;28;43059;-90
2023/08/13 09:04:55;;;;;;;;;;;27.60;64.80;;;;;;5025515;28;44598;-90
2023/08/13 09:07:27;;;;;;;;;;;28.00;63.60;;;;;;5056488;28;43015;-88
2023/08/13 09:09:53;;;;;;;;;;;26.40;65.10;;;;;;5047589;28;43055;-89
2023/08/13 09:12:19;;;;;;;;;;;27.60;64.90;;;;;;5044912;28;42971;-84
2023/08/13 09:14:45;;;;;;;;;;;27.50;64.70;;;;;;5049463;28;43104;-81
2023/08/13 09:17:11;;;;;;;;;;;27.50;64.70;;;;;;5047299;28;42968;-81
2023/08/13 09:19:37;;;;;;;;;;;27.60;65.50;;;;;;5047213;28;43352;-83
2023/08/13 09:22:03;;;;;;;;;;;27.50;65.80;;;;;;5043031;28;43098;-79
2023/08/13 09:24:33;;;;;;;;;;;27.60;65.50;;;;;;5021409;28;44605;-82
2023/08/13 09:26:59;;;;;;;;;;;27.60;63.40;;;;;;5035605;28;43073;-79
2023/08/13 09:29:26;;;;;;;;;;;27.50;65.40;;;;;;5040719;28;43298;-81
2023/08/13 09:31:52;;;;;;;;;;;27.60;65.70;;;;;;5043071;28;43118;-86
2023/08/13 09:34:19;;;;;;;;;;;27.70;65.80;;;;;;5044024;28;42881;-78
2023/08/13 09:36:48;;;;;;;;;;;27.60;65.20;;;;;;5028705;28;43084;-87
2023/08/13 09:39:49;;;;;;;;;;;27.60;63.00;;;;;;5065736;28;44184;-89
2023/08/13 09:42:18;;;;;;;;;;;27.60;63.10;;;;;;5005408;28;43174;-87
2023/08/13 09:44:44;;;;;;;;;;;27.60;62.70;;;;;;5055531;28;42980;-79
2023/08/13 09:47:10;;;;;;;;;;;27.70;65.70;;;;;;5047254;28;42996;-80
2023/08/13 09:49:36;;;;;;;;;;;27.70;66.50;;;;;;5046614;28;43806;-80
2023/08/13 09:52:04;;;;;;;;;;;27.70;66.50;;;;;;5054573;28;43054;-79
2023/08/13 09:54:39;;;;;;;;;;;27.70;67.00;;;;;;5053002;28;43483;-84
2023/08/13 09:57:08;;;;;;;;;;;27.70;67.60;;;;;;5039267;28;43053;-83
2023/08/13 09:59:36;;;;;;;;;;;27.70;65.80;;;;;;5040700;28;43385;-79
2023/08/13 10:02:06;;;;;;;;;;;28.00;64.80;;;;;;5047930;28;43085;-83
2023/08/13 10:04:32;;;;;;;;;;;27.80;63.30;;;;;;5047591;28;43718;-78
2023/08/13 10:06:58;;;;;;;;;;;27.90;66.00;;;;;;5044649;28;43046;-78
2023/08/13 10:09:25;;;;;;;;;;;27.70;67.00;;;;;;5049500;28;43767;-79
2023/08/13 10:11:51;;;;;;;;;;;27.80;69.00;;;;;;5050690;28;42967;-80
2023/08/13 10:14:17;;;;;;;;;;;27.90;70.50;;;;;;5044600;28;43527;-79
2023/08/13 10:16:42;;;;;;;;;;;27.80;68.10;;;;;;5043533;28;42945;-79
2023/08/13 10:19:08;;;;;;;;;;;27.80;65.40;;;;;;5059531;28;43604;-79
2023/08/13 10:21:34;;;;;;;;;;;27.80;64.40;;;;;;5054024;28;43299;-87
2023/08/13 10:24:04;;;;;;;;;;;27.90;64.50;;;;;;5048139;28;43304;-80
2023/08/13 10:26:29;;;;;;;;;;;27.90;65.10;;;;;;5028184;28;43165;-86
2023/08/13 10:28:55;;;;;;;;;;;27.80;65.20;;;;;;5058774;28;43113;-79
2023/08/13 10:31:24;;;;;;;;;;;27.90;65.60;;;;;;5054552;28;43000;-88
2023/08/13 10:34:08;;;;;;;;;;;27.90;63.50;;;;;;5026886;28;43528;-82
2023/08/13 10:36:44;;;;;;;;;;;27.90;63.30;;;;;;5047246;28;42960;-79
2023/08/13 10:39:28;;;;;;;;;;;27.90;63.40;;;;;;5043844;28;42934;-79
2023/08/13 10:41:54;;;;;;;;;;;27.80;63.60;;;;;;5037485;28;43166;-82
2023/08/13 10:44:32;;;;;;;;;;;27.70;65.80;;;;;;5057400;28;43668;-83
2023/08/13 10:46:58;;;;;;;;;;;27.70;64.10;;;;;;5050491;28;42981;-79
2023/08/13 10:49:27;;;;;;;;;;;27.80;66.80;;;;;;5050759;28;43483;-83
2023/08/13 10:51:53;;;;;;;;;;;28.10;64.50;;;;;;5046793;28;42857;-81
2023/08/13 10:54:18;;;;;;;;;;;28.20;69.90;;;;;;5055277;28;42995;-83
2023/08/13 10:56:52;;;;;;;;;;;28.00;66.70;;;;;;5047539;28;43162;-88
2023/08/13 10:59:17;;;;;;;;;;;28.00;68.10;;;;;;5046363;28;43357;-82
2023/08/13 11:02:02;;;;;;;;;;;28.00;65.00;;;;;;5054248;28;42968;-88
2023/08/13 11:04:27;;;;;;;;;;;28.00;62.80;;;;;;5048238;28;43690;-84
2023/08/13 11:06:53;;;;;;;;;;;28.10;64.60;;;;;;5047629;28;43016;-80
2023/08/13 11:09:19;;;;;;;;;;;28.00;64.70;;;;;;5051337;28;43554;-81
2023/08/13 11:11:44;;;;;;;;;;;28.10;64.70;;;;;;5059154;28;43023;-81
2023/08/13 11:14:10;;;;;;;;;;;28.10;64.80;;;;;;5027392;28;45033;-82
2023/08/13 11:16:35;;;;;;;;;;;28.00;64.90;;;;;;5045075;28;42936;-79
2023/08/13 11:19:03;;;;;;;;;;;28.10;64.10;;;;;;5029351;28;44050;-81
2023/08/13 11:21:29;;;;;;;;;;;28.10;64.30;;;;;;5058885;28;43007;-82
2023/08/13 11:23:54;;;;;;;;;;;28.00;64.30;;;;;;5048893;28;43801;-81
2023/08/13 11:26:21;;;;;;;;;;;28.10;64.90;;;;;;5058243;28;43000;-87
2023/08/13 11:28:48;;;;;;;;;;;28.10;68.90;;;;;;5055030;28;43450;-79
2023/08/13 11:31:14;;;;;;;;;;;28.10;65.50;;;;;;5055322;28;43060;-82
2023/08/13 11:33:39;;;;;;;;;;;28.10;64.50;;;;;;5026007;28;45539;-82
2023/08/13 11:36:05;;;;;;;;;;;28.10;65.70;;;;;;5046770;28;43011;-88
2023/08/13 11:38:31;;;;;;;;;;;28.10;63.80;;;;;;5053546;28;43436;-78
2023/08/13 11:40:56;;;;;;;;;;;28.10;64.00;;;;;;5052484;28;42928;-79
2023/08/13 11:43:22;;;;;;;;;;;27.90;66.40;;;;;;5050960;28;43055;-80
2023/08/13 11:45:49;;;;;;;;;;;27.90;67.80;;;;;;5052054;28;43017;-80
2023/08/13 11:48:15;;;;;;;;;;;28.00;65.90;;;;;;5050951;28;43890;-78
2023/08/13 11:50:44;;;;;;;;;;;28.00;65.10;;;;;;5048575;28;43005;-79
2023/08/13 11:53:11;;;;;;;;;;;28.00;64.00;;;;;;5060336;28;43158;-81
2023/08/13 11:55:42;;;;;;;;;;;28.00;62.30;;;;;;5051498;28;42996;-86
2023/08/13 11:58:07;;;;;;;;;;;28.10;62.20;;;;;;5048604;28;43112;-87
2023/08/13 12:00:33;;;;;;;;;;;28.00;61.10;;;;;;5026319;28;43276;-79
2023/08/13 12:02:59;;;;;;;;;;;28.00;60.80;;;;;;5058530;28;42953;-80
2023/08/13 12:05:32;;;;;;;;;;;28.00;60.60;;;;;;5051277;28;43204;-79
2023/08/13 12:08:01;;;;;;;;;;;28.00;58.70;;;;;;5045972;28;43549;-81
2023/08/13 12:10:27;;;;;;;;;;;28.00;58.60;;;;;;5056299;28;43600;-79
2023/08/13 12:12:52;;;;;;;;;;;28.60;63.20;;;;;;5055176;28;44028;-83
2023/08/13 12:15:25;;;;;;;;;;;27.90;61.00;;;;;;5047985;28;42963;-80
2023/08/13 12:17:51;;;;;;;;;;;27.90;58.90;;;;;;5055371;28;42975;-79
2023/08/13 12:20:17;;;;;;;;;;;27.70;60.90;;;;;;5058859;28;43120;-83
2023/08/13 12:22:43;;;;;;;;;;;28.00;63.10;;;;;;5056732;28;42943;-88
2023/08/13 12:25:08;;;;;;;;;;;28.00;61.00;;;;;;5053692;28;42984;-87
2023/08/13 12:27:34;;;;;;;;;;;27.50;60.30;;;;;;5046800;28;43510;-87
2023/08/13 12:30:00;;;;;;;;;;;28.00;61.60;;;;;;5055076;28;43084;-80
2023/08/13 12:32:26;;;;;;;;;;;28.00;58.90;;;;;;5036170;28;45199;-79
2023/08/13 12:34:51;;;;;;;;;;;28.00;59.60;;;;;;5052288;28;42943;-79
2023/08/13 12:37:17;;;;;;;;;;;28.00;59.40;;;;;;5043666;28;42908;-79
2023/08/13 12:39:42;;;;;;;;;;;28.00;59.30;;;;;;5053638;28;43015;-88
2023/08/13 12:42:09;;;;;;;;;;;27.90;59.10;;;;;;5051612;28;43473;-79
2023/08/13 12:44:34;;;;;;;;;;;28.10;59.10;;;;;;5048252;28;42938;-84
2023/08/13 12:47:00;;;;;;;;;;;28.00;58.40;;;;;;5059679;28;42913;-86
2023/08/13 12:49:26;;;;;;;;;;;27.90;57.70;;;;;;5058879;28;43050;-79
2023/08/13 12:51:51;;;;;;;;;;;28.20;58.50;;;;;;5049208;28;43540;-79
2023/08/13 12:54:17;;;;;;;;;;;28.00;57.80;;;;;;5044835;28;43108;-79
2023/08/13 12:56:42;;;;;;;;;;;28.10;59.10;;;;;;5045041;28;43391;-79
2023/08/13 12:59:08;;;;;;;;;;;28.10;58.10;;;;;;5050754;28;43969;-79
2023/08/13 13:01:34;;;;;;;;;;;28.00;57.50;;;;;;5027461;28;45227;-78
2023/08/13 13:03:59;;;;;;;;;;;28.10;58.20;;;;;;5054998;28;42960;-83
2023/08/13 13:06:24;;;;;;;;;;;28.10;58.40;;;;;;5046708;28;43864;-80
2023/08/13 13:08:50;;;;;;;;;;;28.10;58.80;;;;;;5051764;28;43038;-79
2023/08/13 13:11:16;;;;;;;;;;;28.20;58.60;;;;;;5044485;28;43849;-79
2023/08/13 13:13:42;;;;;;;;;;;28.00;58.40;;;;;;5025560;28;42904;-87
2023/08/13 13:16:07;;;;;;;;;;;28.10;58.90;;;;;;5043451;28;43710;-80
2023/08/13 13:18:33;;;;;;;;;;;28.10;59.10;;;;;;5056489;28;43040;-79
2023/08/13 13:20:58;;;;;;;;;;;28.00;59.10;;;;;;5056400;28;43531;-86
2023/08/13 13:23:24;;;;;;;;;;;28.20;59.20;;;;;;5050914;28;42946;-80
2023/08/13 13:25:49;;;;;;;;;;;28.20;59.10;;;;;;5051636;28;43747;-79
2023/08/13 13:28:15;;;;;;;;;;;28.10;58.60;;;;;;5028065;28;43100;-83
2023/08/13 13:30:41;;;;;;;;;;;28.10;59.50;;;;;;5024984;28;42921;-79
2023/08/13 13:33:06;;;;;;;;;;;28.20;59.50;;;;;;5028883;28;43040;-81
2023/08/13 13:35:32;;;;;;;;;;;28.20;58.80;;;;;;5024690;28;44625;-79
2023/08/13 13:37:57;;;;;;;;;;;28.10;59.50;;;;;;5050267;28;43077;-79
2023/08/13 13:40:24;;;;;;;;;;;28.00;59.60;;;;;;5047824;28;42952;-82
2023/08/13 13:42:50;;;;;;;;;;;28.40;59.20;;;;;;5047661;28;42917;-81
2023/08/13 13:45:17;;;;;;;;;;;28.20;59.10;;;;;;5044544;28;42814;-86
2023/08/13 13:47:42;;;;;;;;;;;28.50;59.10;;;;;;5051457;28;42983;-79
2023/08/13 13:50:08;;;;;;;;;;;28.20;59.40;;;;;;5048185;28;43145;-79
2023/08/13 13:52:33;;;;;;;;;;;28.20;59.20;;;;;;5043350;28;43097;-84
2023/08/13 13:54:59;;;;;;;;;;;28.20;59.00;;;;;;5054929;28;43521;-79
2023/08/13 13:57:26;;;;;;;;;;;28.10;58.40;;;;;;5047583;28;42942;-79
2023/08/13 13:59:52;;;;;;;;;;;28.20;59.00;;;;;;5045548;28;43023;-79
2023/08/13 14:02:17;;;;;;;;;;;28.30;59.10;;;;;;5042566;28;43245;-79
2023/08/13 14:04:43;;;;;;;;;;;28.20;58.80;;;;;;5052904;28;42887;-79
2023/08/13 14:07:08;;;;;;;;;;;28.30;59.10;;;;;;5046819;28;42972;-79
2023/08/13 14:09:37;;;;;;;;;;;28.20;59.40;;;;;;5043188;28;43972;-80
2023/08/13 14:12:03;;;;;;;;;;;28.30;58.10;;;;;;5053805;28;43868;-79
2023/08/13 14:14:28;;;;;;;;;;;28.20;59.40;;;;;;5050052;28;43001;-80